Time;durP1;ratioP1;P1;durP2;ratioP2;P2;SDS_P1;SDS_P2;PMS_P1;PMS_P2;Temp;Humidity;BMP_temperature;BMP_pressure;BME280_temperature;BME280_humidity;BME280_pressure;Samples;Min_cycle;Max_cycle;Signal;HPM_P1;HPM_P2
2022/11/28 00:02:02;;;;;;;5.82;2.78;;;9.30;99.90;;;;;;5059171;28;20335;-64
2022/11/28 00:04:27;;;;;;;2.85;2.50;;;9.30;99.90;;;;;;5058192;28;20053;-69
2022/11/28 00:06:53;;;;;;;4.93;2.20;;;9.20;99.90;;;;;;5058196;28;20033;-65
2022/11/28 00:09:20;;;;;;;3.25;2.20;;;9.30;99.90;;;;;;5059035;28;20049;-66
2022/11/28 00:11:47;;;;;;;3.20;2.15;;;9.30;99.90;;;;;;5058859;28;20021;-64
2022/11/28 00:14:13;;;;;;;2.50;2.30;;;9.30;99.90;;;;;;5058999;28;20108;-65
2022/11/28 00:16:39;;;;;;;3.08;2.13;;;9.20;99.90;;;;;;5058098;28;20032;-65
2022/11/28 00:19:05;;;;;;;6.18;2.70;;;9.20;99.90;;;;;;5058122;28;20066;-67
2022/11/28 00:21:32;;;;;;;6.13;2.42;;;9.20;99.90;;;;;;5058802;28;20308;-67
2022/11/28 00:23:59;;;;;;;2.67;2.13;;;9.20;99.90;;;;;;5057997;28;20384;-67
2022/11/28 00:26:33;;;;;;;3.75;2.40;;;9.20;99.90;;;;;;5057982;28;20076;-66
2022/11/28 00:29:01;;;;;;;5.35;2.30;;;9.20;99.90;;;;;;5057919;28;20029;-66
2022/11/28 00:31:29;;;;;;;3.50;2.50;;;9.00;99.90;;;;;;5057945;28;20495;-65
2022/11/28 00:33:56;;;;;;;3.63;2.70;;;9.00;99.90;;;;;;5058656;28;20036;-65
2022/11/28 00:36:22;;;;;;;3.97;2.25;;;9.00;99.90;;;;;;5024661;28;20028;-66
2022/11/28 00:38:49;;;;;;;2.33;2.03;;;9.00;99.90;;;;;;5041467;28;20048;-67
2022/11/28 00:41:18;;;;;;;4.43;2.10;;;9.00;99.90;;;;;;5058364;28;20065;-65
2022/11/28 00:43:45;;;;;;;3.08;2.60;;;8.90;99.90;;;;;;5057680;28;20040;-66
2022/11/28 00:46:13;;;;;;;3.95;2.67;;;8.90;99.90;;;;;;5057619;28;20040;-65
2022/11/28 00:48:39;;;;;;;2.90;2.55;;;8.80;99.90;;;;;;5040943;28;20086;-66
2022/11/28 00:51:18;;;;;;;5.18;2.70;;;8.80;99.90;;;;;;5057506;28;20025;-65
2022/11/28 00:53:46;;;;;;;7.10;2.83;;;8.80;99.90;;;;;;5057471;28;20033;-65
2022/11/28 00:56:15;;;;;;;4.55;2.63;;;8.70;99.90;;;;;;5040978;28;20029;-65
2022/11/28 00:58:41;;;;;;;4.07;2.75;;;8.60;99.90;;;;;;5058140;28;20112;-64
2022/11/28 01:01:10;;;;;;;4.82;2.83;;;8.60;99.90;;;;;;5058337;28;20455;-66
2022/11/28 01:03:37;;;;;;;4.10;2.70;;;8.50;99.90;;;;;;5057981;28;20396;-67
2022/11/28 01:06:04;;;;;;;3.63;3.00;;;8.50;99.90;;;;;;5057745;28;20049;-66
2022/11/28 01:08:33;;;;;;;3.72;2.83;;;8.50;99.90;;;;;;5056361;28;20025;-65
2022/11/28 01:10:59;;;;;;;3.50;3.00;;;8.40;99.90;;;;;;5057410;28;20036;-65
2022/11/28 01:13:26;;;;;;;6.72;3.20;;;8.30;99.90;;;;;;5040293;28;20120;-65
2022/11/28 01:15:52;;;;;;;5.30;3.22;;;8.40;99.90;;;;;;5040981;28;20037;-64
2022/11/28 01:18:17;;;;;;;7.07;3.33;;;8.30;99.90;;;;;;5057669;28;20029;-66
2022/11/28 01:20:43;;;;;;;5.07;3.70;;;8.30;99.90;;;;;;5040280;28;20044;-67
2022/11/28 01:23:09;;;;;;;4.40;3.30;;;8.30;99.90;;;;;;5057575;28;20037;-66
2022/11/28 01:25:35;;;;;;;4.63;3.38;;;8.20;99.90;;;;;;5056846;28;20130;-65
2022/11/28 01:28:00;;;;;;;4.72;3.60;;;8.30;99.90;;;;;;5057558;28;20033;-67
2022/11/28 01:30:26;;;;;;;6.97;3.78;;;8.30;99.90;;;;;;5040224;28;20052;-68
2022/11/28 01:32:52;;;;;;;4.82;3.50;;;8.30;99.90;;;;;;5040239;28;20029;-65
2022/11/28 01:35:18;;;;;;;3.90;3.42;;;8.30;99.90;;;;;;5040277;28;20037;-65
2022/11/28 01:37:44;;;;;;;5.82;3.50;;;8.30;99.90;;;;;;5056663;28;20340;-65
2022/11/28 01:40:11;;;;;;;4.00;3.50;;;8.30;99.90;;;;;;5040009;28;20037;-65
2022/11/28 01:42:37;;;;;;;6.88;3.80;;;8.20;99.90;;;;;;5056390;28;20479;-65
2022/11/28 01:45:30;;;;;;;5.15;3.63;;;8.30;99.90;;;;;;5056407;28;20132;-66
2022/11/28 01:48:00;;;;;;;5.13;4.05;;;8.30;99.90;;;;;;5051494;28;20106;-64
2022/11/28 01:50:28;;;;;;;5.03;3.90;;;8.30;99.90;;;;;;5039871;28;20032;-66
2022/11/28 01:52:58;;;;;;;6.60;3.67;;;8.20;99.90;;;;;;5056707;28;20029;-66
2022/11/28 01:55:29;;;;;;;4.85;4.10;;;8.20;99.90;;;;;;5057676;28;20029;-64
2022/11/28 01:57:55;;;;;;;6.75;3.85;;;8.30;99.90;;;;;;5057107;28;20037;-66
2022/11/28 02:00:21;;;;;;;4.95;4.00;;;8.30;99.90;;;;;;5056355;28;20047;-66
2022/11/28 02:02:51;;;;;;;6.45;4.10;;;8.30;99.90;;;;;;5039795;28;20116;-65
2022/11/28 02:05:19;;;;;;;5.43;3.50;;;8.30;99.90;;;;;;5057004;28;20049;-65
2022/11/28 02:07:46;;;;;;;6.03;3.65;;;8.30;99.90;;;;;;5056253;28;20052;-65
2022/11/28 02:10:27;;;;;;;5.55;4.30;;;8.20;99.90;;;;;;5056224;28;20051;-65
2022/11/28 02:13:07;;;;;;;6.50;4.50;;;8.30;99.90;;;;;;5056960;28;20033;-66
2022/11/28 02:15:44;;;;;;;6.90;4.05;;;8.30;99.90;;;;;;5056105;28;20305;-66
2022/11/28 02:18:25;;;;;;;5.65;4.28;;;8.30;99.90;;;;;;5056912;28;20033;-66
2022/11/28 02:21:09;;;;;;;5.13;4.07;;;8.30;99.90;;;;;;5062828;28;20048;-64
2022/11/28 02:23:53;;;;;;;6.20;4.55;;;8.30;99.90;;;;;;5063423;28;20033;-66
2022/11/28 02:26:31;;;;;;;5.70;4.57;;;8.30;99.90;;;;;;5062543;28;20063;-65
2022/11/28 02:29:46;;;;;;;5.13;4.60;;;8.30;99.90;;;;;;5062683;28;20044;-65
2022/11/28 02:32:34;;;;;;;5.88;4.35;;;8.30;99.90;;;;;;5062702;28;20029;-64
2022/11/28 02:35:41;;;;;;;5.35;4.50;;;8.30;99.90;;;;;;5062678;28;20052;-66
2022/11/28 02:38:36;;;;;;;8.85;5.35;;;8.30;99.90;;;;;;5060796;28;20315;-66
2022/11/28 02:41:27;;;;;;;6.72;4.78;;;8.20;99.90;;;;;;5060343;28;20037;-66
2022/11/28 02:44:17;;;;;;;6.65;5.15;;;8.30;99.90;;;;;;5063293;28;20393;-68
2022/11/28 02:46:49;;;;;;;6.50;5.43;;;8.30;99.90;;;;;;5062434;28;20076;-66
2022/11/28 02:49:24;;;;;;;7.10;4.97;;;8.30;99.90;;;;;;5062589;28;20292;-67
2022/11/28 02:52:03;;;;;;;7.90;4.93;;;8.30;99.90;;;;;;5063192;28;20021;-65
2022/11/28 02:54:30;;;;;;;6.30;5.10;;;8.30;99.90;;;;;;5063201;28;20021;-66
2022/11/28 02:56:56;;;;;;;7.07;5.20;;;8.30;99.90;;;;;;5046192;28;20301;-65
2022/11/28 02:59:37;;;;;;;6.13;5.00;;;8.30;99.90;;;;;;5062532;28;20308;-64
2022/11/28 03:02:17;;;;;;;7.03;5.40;;;8.30;99.90;;;;;;5063118;28;20033;-66
2022/11/28 03:04:56;;;;;;;6.50;5.30;;;8.30;99.90;;;;;;5062225;28;20440;-67
2022/11/28 03:07:53;;;;;;;6.30;5.30;;;8.30;99.90;;;;;;5063086;28;20063;-66
2022/11/28 03:10:43;;;;;;;7.97;5.22;;;8.30;99.90;;;;;;5063142;28;20031;-67
2022/11/28 03:13:40;;;;;;;8.35;5.28;;;8.30;99.90;;;;;;5062271;28;20025;-67
2022/11/28 03:16:06;;;;;;;7.03;4.93;;;8.40;99.90;;;;;;5055781;28;20040;-66
2022/11/28 03:18:44;;;;;;;8.48;5.57;;;8.30;99.90;;;;;;5062207;28;20032;-65
2022/11/28 03:22:07;;;;;;;7.40;5.10;;;8.30;99.90;;;;;;5063019;28;20037;-66
2022/11/28 03:24:35;;;;;;;5.87;5.10;;;8.40;99.90;;;;;;5041668;28;20032;-68
2022/11/28 03:27:22;;;;;;;6.50;5.32;;;8.30;99.90;;;;;;5025218;28;20112;-68
2022/11/28 03:29:53;;;;;;;6.40;5.32;;;8.30;99.90;;;;;;5057716;28;20320;-67
2022/11/28 03:32:26;;;;;;;6.40;5.63;;;8.30;99.90;;;;;;5059244;28;20033;-67
2022/11/28 03:35:01;;;;;;;6.57;5.72;;;8.40;99.90;;;;;;5058969;28;20021;-68
2022/11/28 03:37:51;;;;;;;7.18;5.35;;;8.40;99.90;;;;;;5058843;28;20420;-67
2022/11/28 03:40:22;;;;;;;7.97;5.47;;;8.40;99.90;;;;;;5058456;28;20131;-68
2022/11/28 03:42:56;;;;;;;6.43;5.78;;;8.40;99.90;;;;;;5058599;28;20037;-67
2022/11/28 03:45:25;;;;;;;6.55;5.50;;;8.40;99.90;;;;;;5059507;28;20033;-67
2022/11/28 03:48:03;;;;;;;6.15;5.40;;;8.50;99.90;;;;;;5058760;28;20024;-67
2022/11/28 03:50:43;;;;;;;6.15;5.55;;;8.50;99.90;;;;;;5060012;28;20029;-68
2022/11/28 03:53:16;;;;;;;6.40;5.75;;;8.50;99.90;;;;;;5059381;28;20037;-66
2022/11/28 03:55:55;;;;;;;6.95;5.47;;;8.50;99.90;;;;;;5059881;28;20157;-68
2022/11/28 03:58:48;;;;;;;6.43;5.65;;;8.40;99.90;;;;;;5058549;28;20025;-67
2022/11/28 04:01:30;;;;;;;6.75;5.60;;;8.40;99.90;;;;;;5058479;28;20404;-67
2022/11/28 04:04:11;;;;;;;6.20;5.60;;;8.40;99.90;;;;;;5059052;28;20025;-68
2022/11/28 04:06:57;;;;;;;6.13;5.53;;;8.50;99.90;;;;;;5058416;28;20104;-68
2022/11/28 04:09:44;;;;;;;6.53;5.38;;;8.50;99.90;;;;;;5059115;28;20021;-68
2022/11/28 04:12:32;;;;;;;5.90;5.38;;;8.50;99.90;;;;;;5058622;28;20048;-67
2022/11/28 04:15:10;;;;;;;6.10;5.50;;;8.50;99.90;;;;;;5059442;28;20032;-69
2022/11/28 04:17:48;;;;;;;6.68;5.97;;;8.50;99.90;;;;;;5059085;28;20021;-69
2022/11/28 04:20:36;;;;;;;6.72;5.97;;;8.40;99.90;;;;;;5058887;28;20029;-69
2022/11/28 04:23:10;;;;;;;6.55;5.72;;;8.50;99.90;;;;;;5058790;28;20043;-68
2022/11/28 04:25:40;;;;;;;6.47;5.88;;;8.50;99.90;;;;;;5058736;28;20032;-69
2022/11/28 04:28:11;;;;;;;7.85;6.03;;;8.50;99.90;;;;;;5057911;28;20021;-68
2022/11/28 04:30:38;;;;;;;7.03;5.68;;;8.60;99.90;;;;;;5058725;28;20039;-66
2022/11/28 04:33:08;;;;;;;7.28;5.78;;;8.50;99.90;;;;;;5057837;28;20029;-67
2022/11/28 04:35:41;;;;;;;7.10;6.40;;;8.50;99.90;;;;;;5057918;28;20037;-68
2022/11/28 04:38:09;;;;;;;6.65;6.05;;;8.60;99.90;;;;;;5058609;28;20055;-68
2022/11/28 04:40:41;;;;;;;7.13;6.43;;;8.60;99.90;;;;;;5058751;28;20029;-68
2022/11/28 04:43:12;;;;;;;6.88;6.28;;;8.60;99.90;;;;;;5058225;28;20135;-68
2022/11/28 04:45:45;;;;;;;7.45;6.38;;;8.60;99.90;;;;;;5057657;28;20029;-68
2022/11/28 04:48:11;;;;;;;8.70;6.45;;;8.60;99.90;;;;;;5058290;28;20040;-70
2022/11/28 04:50:47;;;;;;;6.78;6.18;;;8.60;99.90;;;;;;5057494;28;20071;-68
2022/11/28 04:53:48;;;;;;;7.57;6.68;;;8.60;99.90;;;;;;5058475;28;20036;-68
2022/11/28 04:56:23;;;;;;;7.38;6.63;;;8.70;99.90;;;;;;5046994;28;20033;-68
2022/11/28 04:58:50;;;;;;;7.53;6.68;;;8.70;99.90;;;;;;5058145;28;20025;-69
2022/11/28 05:01:24;;;;;;;7.55;6.75;;;8.60;99.90;;;;;;5058038;28;20017;-68
2022/11/28 05:03:50;;;;;;;8.23;7.40;;;8.70;99.90;;;;;;5058123;28;20285;-69
2022/11/28 05:06:34;;;;;;;8.45;7.20;;;8.70;99.90;;;;;;5057071;28;20293;-67
2022/11/28 05:09:00;;;;;;;9.20;7.45;;;8.70;99.90;;;;;;5057993;28;20399;-69
2022/11/28 05:11:27;;;;;;;9.85;7.90;;;8.70;99.90;;;;;;5057114;28;20123;-68
2022/11/28 05:13:54;;;;;;;10.25;7.68;;;8.70;99.90;;;;;;5057723;28;20166;-68
2022/11/28 05:16:21;;;;;;;9.98;8.38;;;8.70;99.90;;;;;;5057798;28;20292;-67
2022/11/28 05:18:47;;;;;;;9.68;8.35;;;8.80;99.90;;;;;;5057816;28;20108;-68
2022/11/28 05:21:13;;;;;;;10.95;8.30;;;8.70;99.90;;;;;;5057089;28;20037;-68
2022/11/28 05:23:41;;;;;;;12.45;9.00;;;8.70;99.90;;;;;;5024012;28;20036;-68
2022/11/28 05:26:16;;;;;;;11.00;8.35;;;8.70;99.90;;;;;;5040158;28;20094;-68
2022/11/28 05:28:44;;;;;;;11.88;8.82;;;8.70;99.90;;;;;;5056945;28;20388;-69
2022/11/28 05:31:10;;;;;;;12.50;9.45;;;8.70;99.90;;;;;;5056732;28;20055;-70
2022/11/28 05:33:36;;;;;;;12.85;9.82;;;8.80;99.90;;;;;;5040209;28;20033;-69
2022/11/28 05:36:07;;;;;;;12.85;9.68;;;8.90;99.90;;;;;;5040476;28;20072;-69
2022/11/28 05:38:33;;;;;;;16.13;10.68;;;8.90;99.90;;;;;;5057406;28;20039;-68
2022/11/28 05:41:00;;;;;;;15.45;9.93;;;8.80;99.90;;;;;;5056649;28;20033;-69
2022/11/28 05:43:26;;;;;;;16.15;10.35;;;8.80;99.90;;;;;;5056450;28;20029;-68
2022/11/28 05:45:53;;;;;;;17.40;11.10;;;8.80;99.90;;;;;;5057118;28;20044;-70
2022/11/28 05:48:19;;;;;;;17.17;11.18;;;8.80;99.90;;;;;;5039826;28;20108;-69
2022/11/28 05:50:44;;;;;;;15.13;10.93;;;8.80;99.90;;;;;;5039886;28;20056;-70
2022/11/28 05:53:10;;;;;;;16.98;11.43;;;8.80;99.90;;;;;;5057095;28;20090;-70
2022/11/28 05:55:38;;;;;;;17.52;11.75;;;8.80;99.90;;;;;;5039324;28;20029;-68
2022/11/28 05:58:04;;;;;;;17.27;12.02;;;8.80;99.90;;;;;;5057129;28;20028;-70
2022/11/28 06:00:30;;;;;;;19.42;12.80;;;8.90;99.90;;;;;;5056960;28;20040;-70
2022/11/28 06:02:56;;;;;;;19.33;12.82;;;8.90;99.90;;;;;;5056992;28;20110;-68
2022/11/28 06:05:22;;;;;;;20.30;13.68;;;8.90;99.90;;;;;;5056610;28;20049;-69
2022/11/28 06:07:47;;;;;;;19.52;13.20;;;8.90;99.90;;;;;;5039588;28;20044;-70
2022/11/28 06:10:13;;;;;;;19.00;13.15;;;8.80;99.90;;;;;;5056908;28;20033;-68
2022/11/28 06:12:39;;;;;;;20.60;13.90;;;8.90;99.90;;;;;;5056952;28;20403;-69
2022/11/28 06:15:05;;;;;;;22.73;14.43;;;8.90;99.90;;;;;;5056723;28;20033;-69
2022/11/28 06:17:32;;;;;;;19.02;14.02;;;8.90;99.90;;;;;;5056447;28;20025;-69
2022/11/28 06:19:57;;;;;;;23.17;14.70;;;8.90;99.90;;;;;;5057435;28;20025;-68
2022/11/28 06:22:23;;;;;;;21.63;15.32;;;8.90;99.90;;;;;;5056714;28;20044;-67
2022/11/28 06:24:49;;;;;;;21.83;14.80;;;8.90;99.90;;;;;;5039498;28;20396;-69
2022/11/28 06:27:15;;;;;;;21.40;14.77;;;8.90;99.90;;;;;;5039421;28;20030;-68
2022/11/28 06:29:41;;;;;;;20.50;15.30;;;9.00;99.90;;;;;;5040067;28;20037;-66
2022/11/28 06:32:06;;;;;;;24.60;15.55;;;9.10;99.90;;;;;;5056025;28;20412;-68
2022/11/28 06:34:33;;;;;;;22.10;15.15;;;9.10;99.90;;;;;;5039377;28;20022;-67
2022/11/28 06:36:59;;;;;;;22.35;15.32;;;9.10;99.90;;;;;;5056169;28;20051;-68
2022/11/28 06:39:25;;;;;;;26.08;15.60;;;9.20;99.90;;;;;;5039351;28;20270;-67
2022/11/28 06:41:51;;;;;;;22.48;15.98;;;9.20;99.90;;;;;;5057055;28;20094;-69
2022/11/28 06:44:18;;;;;;;22.83;15.45;;;9.00;99.90;;;;;;5056600;28;20282;-69
2022/11/28 06:46:44;;;;;;;23.58;15.73;;;8.90;99.90;;;;;;5055782;28;20033;-70
2022/11/28 06:49:13;;;;;;;25.00;16.35;;;8.90;99.90;;;;;;5039220;28;20034;-69
2022/11/28 06:51:40;;;;;;;26.45;16.58;;;8.90;99.90;;;;;;5055785;28;20044;-70
2022/11/28 06:54:06;;;;;;;24.02;16.70;;;8.90;99.90;;;;;;5055792;28;20404;-69
2022/11/28 06:56:33;;;;;;;28.27;18.35;;;8.90;99.90;;;;;;5056607;28;20037;-70
2022/11/28 06:58:59;;;;;;;26.52;18.08;;;8.90;99.90;;;;;;5039128;28;20025;-70
2022/11/28 07:01:28;;;;;;;25.67;17.42;;;8.90;99.90;;;;;;5055718;28;20446;-71
2022/11/28 07:03:54;;;;;;;26.67;17.58;;;8.90;99.90;;;;;;5056317;28;20025;-72
2022/11/28 07:06:21;;;;;;;28.95;18.15;;;9.00;99.90;;;;;;5056934;28;20029;-70
2022/11/28 07:08:47;;;;;;;30.17;19.15;;;8.90;99.90;;;;;;5059512;28;20124;-68
2022/11/28 07:11:14;;;;;;;27.63;18.20;;;9.00;99.90;;;;;;5060208;28;20443;-67
2022/11/28 07:13:40;;;;;;;30.83;18.90;;;9.00;99.90;;;;;;5060229;28;20108;-70
2022/11/28 07:16:10;;;;;;;28.08;18.80;;;9.10;99.90;;;;;;5060028;28;20038;-69
2022/11/28 07:18:36;;;;;;;29.85;19.77;;;9.00;99.90;;;;;;5043174;28;20056;-70
2022/11/28 07:21:02;;;;;;;32.38;18.88;;;9.00;99.90;;;;;;5043451;28;20075;-70
2022/11/28 07:23:28;;;;;;;28.70;19.33;;;9.00;99.90;;;;;;5059973;28;20243;-69
2022/11/28 07:25:58;;;;;;;27.65;18.60;;;9.00;99.90;;;;;;5058980;28;20056;-69
2022/11/28 07:28:25;;;;;;;30.90;19.83;;;9.00;99.90;;;;;;5059921;28;20289;-70
2022/11/28 07:31:19;;;;;;;30.23;19.48;;;9.00;99.90;;;;;;5060741;28;20365;-71
2022/11/28 07:33:48;;;;;;;28.77;19.13;;;9.00;99.90;;;;;;5057449;28;20040;-69
2022/11/28 07:36:20;;;;;;;30.60;19.15;;;9.00;99.90;;;;;;5058975;28;20052;-68
2022/11/28 07:38:48;;;;;;;32.67;20.30;;;9.00;99.90;;;;;;5058881;28;20106;-69
2022/11/28 07:41:14;;;;;;;29.77;20.20;;;9.00;99.90;;;;;;5059469;28;20412;-68
2022/11/28 07:43:42;;;;;;;28.33;19.90;;;9.00;99.90;;;;;;5058593;28;20082;-68
2022/11/28 07:46:10;;;;;;;28.60;19.75;;;9.00;99.90;;;;;;5042141;28;20029;-71
2022/11/28 07:48:37;;;;;;;30.73;20.67;;;9.00;99.90;;;;;;5059463;28;20040;-70
2022/11/28 07:51:08;;;;;;;28.80;19.90;;;9.10;99.90;;;;;;5059292;28;20029;-69
2022/11/28 07:53:35;;;;;;;28.92;19.48;;;9.10;99.90;;;;;;5058556;28;20036;-68
2022/11/28 07:56:06;;;;;;;28.25;19.83;;;9.10;99.90;;;;;;5058488;28;20033;-69
2022/11/28 07:58:33;;;;;;;30.45;20.45;;;9.10;99.90;;;;;;5059198;28;20029;-70
2022/11/28 08:00:59;;;;;;;30.27;19.95;;;9.10;99.90;;;;;;5059208;28;20124;-70
2022/11/28 08:03:25;;;;;;;28.48;19.77;;;9.30;99.90;;;;;;5058187;28;20462;-70
2022/11/28 08:05:51;;;;;;;28.17;19.23;;;9.40;99.90;;;;;;5058761;28;20053;-69
2022/11/28 08:08:19;;;;;;;31.30;20.98;;;9.50;99.90;;;;;;5059043;28;20041;-69
2022/11/28 08:10:45;;;;;;;30.70;20.48;;;9.50;99.90;;;;;;5058998;28;20028;-69
2022/11/28 08:13:12;;;;;;;28.67;20.08;;;9.50;99.90;;;;;;5058971;28;20051;-69
2022/11/28 08:15:39;;;;;;;28.50;19.85;;;9.50;99.90;;;;;;5058810;28;20032;-70
2022/11/28 08:18:06;;;;;;;29.05;20.05;;;9.50;99.90;;;;;;5057671;28;20028;-70
2022/11/28 08:20:32;;;;;;;29.30;19.67;;;9.60;99.90;;;;;;5041452;28;20021;-69
2022/11/28 08:22:58;;;;;;;31.02;19.92;;;9.50;99.90;;;;;;5057998;28;20036;-69
2022/11/28 08:25:24;;;;;;;31.08;19.48;;;9.60;99.90;;;;;;5057934;28;20025;-68
2022/11/28 08:27:49;;;;;;;31.88;19.63;;;9.70;99.90;;;;;;5058678;28;20048;-71
2022/11/28 08:30:15;;;;;;;26.27;17.52;;;9.60;99.90;;;;;;5057837;28;20037;-68
2022/11/28 08:32:41;;;;;;;27.38;18.05;;;9.60;99.90;;;;;;5057891;28;20396;-70
2022/11/28 08:35:07;;;;;;;26.75;18.05;;;9.50;99.90;;;;;;5041206;28;20037;-71
2022/11/28 08:37:33;;;;;;;28.58;17.63;;;9.50;99.90;;;;;;5058478;28;20044;-69
2022/11/28 08:39:59;;;;;;;30.15;18.10;;;9.60;99.90;;;;;;5057472;28;20092;-70
2022/11/28 08:42:27;;;;;;;32.88;18.63;;;9.60;99.90;;;;;;5041605;28;20025;-68
2022/11/28 08:44:53;;;;;;;26.77;18.77;;;9.50;99.90;;;;;;5057606;28;20036;-70
2022/11/28 08:47:19;;;;;;;28.05;18.55;;;9.50;99.90;;;;;;5057585;28;20029;-71
2022/11/28 08:49:45;;;;;;;26.70;17.80;;;9.50;99.90;;;;;;5058278;28;20087;-71
2022/11/28 08:52:11;;;;;;;25.35;17.80;;;9.50;99.90;;;;;;5058415;28;20126;-70
2022/11/28 08:54:36;;;;;;;24.20;17.17;;;9.40;99.90;;;;;;5057160;28;20025;-69
2022/11/28 08:57:02;;;;;;;28.45;17.58;;;9.50;99.90;;;;;;5058171;28;20036;-68
2022/11/28 08:59:28;;;;;;;27.80;17.67;;;9.60;99.90;;;;;;5041322;28;20040;-69
2022/11/28 09:01:54;;;;;;;27.00;17.60;;;9.80;99.90;;;;;;5040782;28;20305;-71
2022/11/28 09:04:20;;;;;;;24.45;16.08;;;9.60;99.90;;;;;;5057173;28;20131;-66
2022/11/28 09:06:49;;;;;;;24.02;16.20;;;9.60;99.90;;;;;;5057852;28;20045;-67
2022/11/28 09:09:15;;;;;;;22.63;16.33;;;9.60;99.90;;;;;;5057230;28;20029;-69
2022/11/28 09:11:41;;;;;;;23.85;15.63;;;9.60;99.90;;;;;;5057824;28;20082;-66
2022/11/28 09:14:07;;;;;;;22.92;14.75;;;9.50;99.90;;;;;;5057720;28;20040;-67
2022/11/28 09:16:33;;;;;;;21.70;15.38;;;9.60;99.90;;;;;;5057201;28;20033;-67
2022/11/28 09:18:59;;;;;;;22.70;16.25;;;9.80;99.90;;;;;;5057730;28;20047;-67
2022/11/28 09:21:25;;;;;;;19.90;14.85;;;9.90;99.90;;;;;;5056840;28;20428;-66
2022/11/28 09:23:54;;;;;;;22.35;14.70;;;10.00;99.90;;;;;;5040239;28;20037;-67
2022/11/28 09:26:23;;;;;;;22.70;14.70;;;9.90;99.90;;;;;;5057514;28;20040;-67
2022/11/28 09:28:49;;;;;;;24.23;14.88;;;9.90;99.90;;;;;;5056937;28;20028;-66
2022/11/28 09:31:16;;;;;;;22.13;15.00;;;9.80;99.90;;;;;;5040208;28;20109;-67
2022/11/28 09:33:43;;;;;;;19.40;14.73;;;9.90;99.90;;;;;;5057504;28;20090;-67
2022/11/28 09:36:17;;;;;;;24.05;14.85;;;9.90;99.90;;;;;;5057295;28;20359;-68
2022/11/28 09:38:44;;;;;;;21.95;14.82;;;10.00;99.90;;;;;;5057367;28;20033;-67
2022/11/28 09:41:41;;;;;;;21.98;14.98;;;10.00;99.90;;;;;;5023670;28;20324;-67
2022/11/28 09:44:22;;;;;;;21.92;15.27;;;10.10;99.90;;;;;;5056554;28;20029;-66
2022/11/28 09:46:52;;;;;;;25.15;15.45;;;10.00;99.90;;;;;;5056905;28;20040;-67
2022/11/28 09:49:30;;;;;;;23.05;16.08;;;10.00;99.90;;;;;;5039873;28;20071;-67
2022/11/28 09:52:06;;;;;;;25.00;15.73;;;9.90;99.90;;;;;;5056787;28;20029;-69
2022/11/28 09:55:14;;;;;;;23.13;16.10;;;9.90;99.90;;;;;;5057632;28;20060;-68
2022/11/28 09:57:46;;;;;;;25.65;16.52;;;9.90;99.90;;;;;;5056289;28;20270;-66
2022/11/28 10:00:21;;;;;;;26.02;16.35;;;10.10;99.90;;;;;;5056408;28;20120;-67
2022/11/28 10:03:13;;;;;;;24.50;16.15;;;10.30;99.90;;;;;;5039579;28;20033;-68
2022/11/28 10:06:04;;;;;;;21.83;15.43;;;10.60;99.90;;;;;;5055970;28;20098;-68
2022/11/28 10:08:49;;;;;;;23.20;15.35;;;10.90;99.90;;;;;;5056872;28;20028;-68
2022/11/28 10:11:30;;;;;;;19.33;14.88;;;10.80;99.90;;;;;;5056234;28;20052;-67
2022/11/28 10:14:12;;;;;;;22.92;14.77;;;10.80;99.90;;;;;;5056175;28;20393;-68
2022/11/28 10:16:57;;;;;;;25.08;14.57;;;10.80;99.90;;;;;;5039275;28;20044;-67
2022/11/28 10:19:50;;;;;;;25.30;14.77;;;10.70;99.90;;;;;;5056699;28;20036;-69
2022/11/28 10:22:21;;;;;;;23.92;15.00;;;10.90;99.90;;;;;;5054412;28;20048;-68
2022/11/28 10:24:58;;;;;;;25.30;14.70;;;10.80;99.90;;;;;;5056725;28;20032;-66
2022/11/28 10:27:32;;;;;;;19.95;13.95;;;10.70;99.90;;;;;;5056602;28;20091;-69
2022/11/28 10:30:09;;;;;;;23.15;14.02;;;10.60;99.90;;;;;;5055830;28;20021;-67
2022/11/28 10:32:47;;;;;;;25.40;15.43;;;10.70;99.90;;;;;;5055957;28;20098;-67
2022/11/28 10:35:25;;;;;;;26.38;14.52;;;10.80;99.90;;;;;;5055872;28;20025;-68
2022/11/28 10:37:51;;;;;;;21.45;13.95;;;10.60;99.90;;;;;;5055891;28;20103;-67
2022/11/28 10:40:24;;;;;;;25.58;15.52;;;10.50;99.90;;;;;;5039720;28;20025;-67
2022/11/28 10:43:01;;;;;;;25.33;15.82;;;10.30;99.90;;;;;;5059808;28;20029;-66
2022/11/28 10:45:42;;;;;;;23.17;15.13;;;10.60;99.90;;;;;;5060900;28;20266;-68
2022/11/28 10:48:37;;;;;;;23.02;15.32;;;10.60;99.90;;;;;;5060573;28;20346;-68
2022/11/28 10:51:33;;;;;;;26.48;15.20;;;10.60;99.90;;;;;;5035892;28;20037;-68
2022/11/28 10:54:04;;;;;;;25.73;15.77;;;10.60;99.90;;;;;;5025113;28;20045;-68
2022/11/28 10:56:33;;;;;;;28.58;15.95;;;10.50;99.90;;;;;;5059711;28;20041;-68
2022/11/28 10:59:20;;;;;;;22.08;14.50;;;10.50;99.90;;;;;;5059577;28;20321;-69
2022/11/28 11:01:48;;;;;;;27.80;14.32;;;10.70;99.90;;;;;;5059376;28;20041;-68
2022/11/28 11:04:22;;;;;;;24.20;14.85;;;10.70;99.90;;;;;;5059802;28;20088;-69
2022/11/28 11:07:18;;;;;;;25.45;14.30;;;11.00;99.90;;;;;;5059403;28;20308;-69
2022/11/28 11:09:44;;;;;;;27.08;12.85;;;11.20;99.90;;;;;;5060372;28;20037;-69
2022/11/28 11:12:25;;;;;;;23.45;13.25;;;11.30;99.90;;;;;;5042766;28;20405;-70
2022/11/28 11:14:51;;;;;;;24.25;12.57;;;11.30;99.90;;;;;;5059854;28;20025;-70
2022/11/28 11:17:43;;;;;;;23.33;13.07;;;11.40;99.90;;;;;;5042597;28;20028;-68
2022/11/28 11:20:37;;;;;;;21.88;12.55;;;11.50;99.90;;;;;;5041024;28;20037;-69
2022/11/28 11:23:16;;;;;;;22.90;13.15;;;11.30;99.90;;;;;;5059240;28;20060;-69
2022/11/28 11:25:52;;;;;;;26.08;12.00;;;11.10;99.90;;;;;;5059029;28;20033;-68
2022/11/28 11:28:30;;;;;;;23.25;11.95;;;11.10;99.90;;;;;;5058992;28;20039;-68
2022/11/28 11:31:05;;;;;;;24.42;12.20;;;11.30;99.90;;;;;;5058971;28;20064;-67
2022/11/28 11:33:36;;;;;;;22.45;12.15;;;11.00;99.90;;;;;;5059224;28;20041;-68
2022/11/28 11:36:04;;;;;;;22.17;12.13;;;10.90;99.90;;;;;;5059638;28;20262;-67
2022/11/28 11:38:34;;;;;;;23.35;12.07;;;10.90;99.90;;;;;;5042074;28;20025;-66
2022/11/28 11:41:25;;;;;;;25.38;12.32;;;11.10;99.90;;;;;;5059384;28;20303;-67
2022/11/28 11:43:51;;;;;;;22.33;12.50;;;11.00;99.90;;;;;;5058697;28;20040;-65
2022/11/28 11:46:17;;;;;;;23.05;12.07;;;11.10;99.90;;;;;;5058672;28;20202;-68
2022/11/28 11:48:52;;;;;;;21.33;12.10;;;11.10;99.90;;;;;;5025498;28;20029;-68
2022/11/28 11:51:27;;;;;;;24.63;12.38;;;11.10;99.90;;;;;;5059512;28;20098;-66
2022/11/28 11:54:19;;;;;;;27.02;12.52;;;11.00;99.90;;;;;;5058566;28;20036;-67
2022/11/28 11:56:47;;;;;;;22.55;11.95;;;11.00;99.90;;;;;;5058572;28;20049;-66
2022/11/28 11:59:20;;;;;;;27.33;11.95;;;10.90;99.90;;;;;;5059520;28;20041;-68
2022/11/28 12:01:51;;;;;;;23.27;12.27;;;10.90;99.90;;;;;;5059473;28;20154;-67
2022/11/28 12:04:42;;;;;;;22.67;11.65;;;11.10;99.90;;;;;;5059013;28;20083;-68
2022/11/28 12:07:25;;;;;;;25.45;11.73;;;11.30;99.90;;;;;;5058222;28;20057;-69
2022/11/28 12:09:54;;;;;;;27.77;11.98;;;11.40;99.90;;;;;;5059099;28;20074;-67
2022/11/28 12:12:28;;;;;;;23.33;11.25;;;11.30;99.90;;;;;;5041483;28;20028;-67
2022/11/28 12:14:54;;;;;;;24.73;11.68;;;11.30;99.90;;;;;;5058081;28;20111;-68
2022/11/28 12:17:37;;;;;;;22.48;11.13;;;11.30;99.90;;;;;;5057926;28;20106;-69
2022/11/28 12:20:27;;;;;;;25.73;11.55;;;11.50;99.90;;;;;;5058478;28;20036;-66
2022/11/28 12:23:27;;;;;;;22.80;11.38;;;11.60;99.90;;;;;;5058633;28;20033;-68
2022/11/28 12:26:06;;;;;;;21.55;10.57;;;11.70;99.90;;;;;;5057646;28;20388;-66
2022/11/28 12:28:50;;;;;;;28.90;10.95;;;11.60;99.90;;;;;;5041327;28;20024;-67
2022/11/28 12:31:45;;;;;;;28.65;11.32;;;11.50;99.90;;;;;;5058797;28;20068;-67
2022/11/28 12:34:20;;;;;;;25.48;10.15;;;11.50;99.90;;;;;;5040973;28;20025;-65
2022/11/28 12:37:04;;;;;;;27.25;9.75;;;11.50;99.90;;;;;;5040708;28;20033;-65
2022/11/28 12:39:36;;;;;;;23.25;10.20;;;11.60;99.90;;;;;;5057668;28;20028;-66
2022/11/28 12:42:12;;;;;;;19.75;10.35;;;11.80;99.90;;;;;;5057573;28;20169;-66
2022/11/28 12:44:38;;;;;;;21.10;9.98;;;11.70;99.90;;;;;;5057650;28;20048;-65
2022/11/28 12:47:24;;;;;;;23.35;10.43;;;11.60;99.90;;;;;;5040764;28;20273;-66
2022/11/28 12:50:01;;;;;;;25.33;10.18;;;11.30;99.90;;;;;;5058363;28;20048;-66
2022/11/28 12:52:46;;;;;;;23.08;9.43;;;11.30;99.90;;;;;;5058258;28;20033;-65
2022/11/28 12:55:47;;;;;;;23.73;10.48;;;11.40;99.90;;;;;;5057284;28;20082;-65
2022/11/28 12:58:13;;;;;;;20.98;9.52;;;11.60;99.90;;;;;;5054999;28;20119;-64
2022/11/28 13:01:11;;;;;;;19.08;9.88;;;12.10;99.90;;;;;;5057900;28;20413;-64
2022/11/28 13:04:03;;;;;;;28.55;10.02;;;12.30;99.90;;;;;;5057161;28;20044;-65
2022/11/28 13:06:56;;;;;;;26.27;9.55;;;12.40;99.90;;;;;;5057353;28;20070;-67
2022/11/28 13:09:41;;;;;;;20.15;8.75;;;12.50;99.90;;;;;;5056987;28;20098;-66
2022/11/28 13:12:28;;;;;;;21.52;9.60;;;11.80;99.90;;;;;;5040392;28;20028;-66
2022/11/28 13:14:56;;;;;;;27.83;9.32;;;11.80;99.90;;;;;;5058049;28;20033;-64